sensor_id;sensor_type;location;lat;lon;timestamp;pressure;altitude;pressure_sealevel;temperature;humidity
41703;BME280;861;48.808;9.006;2023-03-20T00:02:23;97308.16;;;10.58;84.31
41703;BME280;861;48.808;9.006;2023-03-20T00:04:50;97312.31;;;10.41;84.54
41703;BME280;861;48.808;9.006;2023-03-20T00:07:16;97308.13;;;10.54;84.48
41703;BME280;861;48.808;9.006;2023-03-20T00:09:42;97308.69;;;10.27;85.74
41703;BME280;861;48.808;9.006;2023-03-20T00:12:22;97309.06;;;10.25;85.93
41703;BME280;861;48.808;9.006;2023-03-20T00:14:51;97298.66;;;9.98;87.22
41703;BME280;861;48.808;9.006;2023-03-20T00:17:20;97304.28;;;10.12;87.05
41703;BME280;861;48.808;9.006;2023-03-20T00:19:46;97298.97;;;9.86;87.46
41703;BME280;861;48.808;9.006;2023-03-20T00:22:13;97303.50;;;9.75;88.07
41703;BME280;861;48.808;9.006;2023-03-20T00:24:39;97312.09;;;9.77;88.32
41703;BME280;861;48.808;9.006;2023-03-20T00:27:09;97308.41;;;9.62;89.07
41703;BME280;861;48.808;9.006;2023-03-20T00:29:39;97304.81;;;9.88;87.95
41703;BME280;861;48.808;9.006;2023-03-20T00:32:14;97307.59;;;9.95;87.23
41703;BME280;861;48.808;9.006;2023-03-20T00:34:40;97303.94;;;10.17;85.94
41703;BME280;861;48.808;9.006;2023-03-20T00:37:09;97317.28;;;9.92;87.28
41703;BME280;861;48.808;9.006;2023-03-20T00:39:40;97313.91;;;10.06;86.62
41703;BME280;861;48.808;9.006;2023-03-20T00:42:19;97312.03;;;10.10;85.86
41703;BME280;861;48.808;9.006;2023-03-20T00:44:53;97308.19;;;10.14;86.01
41703;BME280;861;48.808;9.006;2023-03-20T00:47:23;97311.00;;;10.25;85.16
41703;BME280;861;48.808;9.006;2023-03-20T00:49:53;97314.47;;;10.22;86.03
41703;BME280;861;48.808;9.006;2023-03-20T00:52:22;97313.00;;;10.31;85.63
41703;BME280;861;48.808;9.006;2023-03-20T00:54:49;97312.88;;;9.81;87.24
41703;BME280;861;48.808;9.006;2023-03-20T00:57:36;97316.78;;;9.80;88.41
41703;BME280;861;48.808;9.006;2023-03-20T01:00:33;97314.59;;;9.59;88.93
41703;BME280;861;48.808;9.006;2023-03-20T01:03:22;97315.78;;;9.62;89.43
41703;BME280;861;48.808;9.006;2023-03-20T01:05:51;97326.25;;;9.60;89.54
41703;BME280;861;48.808;9.006;2023-03-20T01:08:24;97315.69;;;9.91;87.44
41703;BME280;861;48.808;9.006;2023-03-20T01:10:57;97315.41;;;10.00;86.96
41703;BME280;861;48.808;9.006;2023-03-20T01:13:29;97315.44;;;10.03;86.60
41703;BME280;861;48.808;9.006;2023-03-20T01:15:58;97317.88;;;10.12;86.45
41703;BME280;861;48.808;9.006;2023-03-20T01:18:26;97311.78;;;10.25;85.73
41703;BME280;861;48.808;9.006;2023-03-20T01:20:53;97309.56;;;10.38;85.03
41703;BME280;861;48.808;9.006;2023-03-20T01:23:21;97299.19;;;10.54;84.03
41703;BME280;861;48.808;9.006;2023-03-20T01:25:51;97310.19;;;10.75;83.09
41703;BME280;861;48.808;9.006;2023-03-20T01:28:22;97312.19;;;10.81;82.26
41703;BME280;861;48.808;9.006;2023-03-20T01:30:50;97317.63;;;10.81;82.22
41703;BME280;861;48.808;9.006;2023-03-20T01:33:22;97324.25;;;10.80;82.80
41703;BME280;861;48.808;9.006;2023-03-20T01:35:51;97325.06;;;10.84;81.93
41703;BME280;861;48.808;9.006;2023-03-20T01:38:26;97326.59;;;10.82;81.59
41703;BME280;861;48.808;9.006;2023-03-20T01:41:14;97331.22;;;10.78;82.10
41703;BME280;861;48.808;9.006;2023-03-20T01:43:44;97332.47;;;10.88;81.12
41703;BME280;861;48.808;9.006;2023-03-20T01:51:21;97336.69;;;9.91;85.77
41703;BME280;861;48.808;9.006;2023-03-20T01:54:05;97323.53;;;9.96;85.03
41703;BME280;861;48.808;9.006;2023-03-20T01:56:46;97337.59;;;9.65;85.49
41703;BME280;861;48.808;9.006;2023-03-20T01:59:31;97335.16;;;9.93;84.08
41703;BME280;861;48.808;9.006;2023-03-20T02:02:01;97336.38;;;9.96;84.81
41703;BME280;861;48.808;9.006;2023-03-20T02:04:39;97342.06;;;10.20;82.75
41703;BME280;861;48.808;9.006;2023-03-20T02:07:12;97341.97;;;10.13;82.91
41703;BME280;861;48.808;9.006;2023-03-20T02:09:42;97351.09;;;9.95;84.78
41703;BME280;861;48.808;9.006;2023-03-20T02:12:10;97346.75;;;9.87;84.57
41703;BME280;861;48.808;9.006;2023-03-20T02:14:38;97347.53;;;9.87;85.73
41703;BME280;861;48.808;9.006;2023-03-20T02:17:09;97351.69;;;9.78;85.01
41703;BME280;861;48.808;9.006;2023-03-20T02:23:15;97347.91;;;9.86;84.60
41703;BME280;861;48.808;9.006;2023-03-20T02:37:52;97344.34;;;9.82;84.02
41703;BME280;861;48.808;9.006;2023-03-20T02:41:29;97347.25;;;9.96;83.55
41703;BME280;861;48.808;9.006;2023-03-20T02:44:58;97346.22;;;10.07;83.59
41703;BME280;861;48.808;9.006;2023-03-20T02:51:00;97346.94;;;10.04;83.13
41703;BME280;861;48.808;9.006;2023-03-20T02:53:50;97342.69;;;10.07;82.75
41703;BME280;861;48.808;9.006;2023-03-20T02:56:48;97349.50;;;10.27;82.21
41703;BME280;861;48.808;9.006;2023-03-20T03:00:25;97353.06;;;10.34;82.30
41703;BME280;861;48.808;9.006;2023-03-20T03:03:20;97360.72;;;10.62;81.40
41703;BME280;861;48.808;9.006;2023-03-20T03:09:17;97360.41;;;10.74;79.97
41703;BME280;861;48.808;9.006;2023-03-20T03:11:59;97355.34;;;10.72;80.59
41703;BME280;861;48.808;9.006;2023-03-20T03:14:53;97361.53;;;10.69;79.81
41703;BME280;861;48.808;9.006;2023-03-20T03:17:33;97369.78;;;10.80;79.89
41703;BME280;861;48.808;9.006;2023-03-20T03:20:26;97370.09;;;10.71;79.66
41703;BME280;861;48.808;9.006;2023-03-20T03:22:57;97371.22;;;10.67;79.87
41703;BME280;861;48.808;9.006;2023-03-20T03:25:33;97369.84;;;10.87;78.93
41703;BME280;861;48.808;9.006;2023-03-20T03:28:32;97375.28;;;10.87;79.12
41703;BME280;861;48.808;9.006;2023-03-20T03:31:16;97372.19;;;10.89;79.14
41703;BME280;861;48.808;9.006;2023-03-20T03:33:51;97380.75;;;10.87;78.72
41703;BME280;861;48.808;9.006;2023-03-20T03:36:59;97379.22;;;10.93;78.47
41703;BME280;861;48.808;9.006;2023-03-20T03:40:21;97375.34;;;10.98;77.93
41703;BME280;861;48.808;9.006;2023-03-20T03:43:36;97386.25;;;10.98;78.77
41703;BME280;861;48.808;9.006;2023-03-20T03:46:33;97374.94;;;10.96;78.94
41703;BME280;861;48.808;9.006;2023-03-20T03:49:15;97382.69;;;10.94;78.71
41703;BME280;861;48.808;9.006;2023-03-20T03:51:56;97371.41;;;10.88;78.28
41703;BME280;861;48.808;9.006;2023-03-20T03:54:40;97370.59;;;10.84;78.18
41703;BME280;861;48.808;9.006;2023-03-20T03:57:17;97384.22;;;10.84;78.99
41703;BME280;861;48.808;9.006;2023-03-20T03:59:52;97384.19;;;10.80;78.27
41703;BME280;861;48.808;9.006;2023-03-20T04:02:23;97383.00;;;10.81;78.94
41703;BME280;861;48.808;9.006;2023-03-20T04:04:53;97383.88;;;10.93;77.94
41703;BME280;861;48.808;9.006;2023-03-20T04:07:24;97389.28;;;10.86;78.28
41703;BME280;861;48.808;9.006;2023-03-20T04:09:52;97386.13;;;10.80;78.94
41703;BME280;861;48.808;9.006;2023-03-20T04:12:35;97384.56;;;10.82;78.78
41703;BME280;861;48.808;9.006;2023-03-20T04:15:04;97394.28;;;10.80;79.08
41703;BME280;861;48.808;9.006;2023-03-20T04:17:32;97386.16;;;10.83;78.64
41703;BME280;861;48.808;9.006;2023-03-20T04:19:58;97390.31;;;10.70;78.73
41703;BME280;861;48.808;9.006;2023-03-20T04:22:25;97378.94;;;10.58;79.50
41703;BME280;861;48.808;9.006;2023-03-20T04:24:52;97377.88;;;10.69;79.29
41703;BME280;861;48.808;9.006;2023-03-20T04:27:18;97371.19;;;10.60;79.26
41703;BME280;861;48.808;9.006;2023-03-20T04:29:45;97366.50;;;10.60;80.24
41703;BME280;861;48.808;9.006;2023-03-20T04:32:13;97367.34;;;10.64;79.37
41703;BME280;861;48.808;9.006;2023-03-20T04:34:39;97363.78;;;10.57;79.45
41703;BME280;861;48.808;9.006;2023-03-20T04:37:05;97374.91;;;10.89;78.14
41703;BME280;861;48.808;9.006;2023-03-20T04:39:34;97377.63;;;10.92;78.14
41703;BME280;861;48.808;9.006;2023-03-20T04:42:03;97372.38;;;11.17;76.94
41703;BME280;861;48.808;9.006;2023-03-20T04:44:31;97376.31;;;11.26;76.08
41703;BME280;861;48.808;9.006;2023-03-20T04:46:57;97377.00;;;11.13;76.85
41703;BME280;861;48.808;9.006;2023-03-20T04:49:23;97380.16;;;10.64;79.30
41703;BME280;861;48.808;9.006;2023-03-20T04:51:50;97385.22;;;10.62;79.32
41703;BME280;861;48.808;9.006;2023-03-20T04:54:16;97392.59;;;10.61;78.52
41703;BME280;861;48.808;9.006;2023-03-20T04:56:42;97395.34;;;10.68;78.09
41703;BME280;861;48.808;9.006;2023-03-20T04:59:08;97385.59;;;10.64;78.52
41703;BME280;861;48.808;9.006;2023-03-20T05:01:35;97393.38;;;10.62;78.68
41703;BME280;861;48.808;9.006;2023-03-20T05:04:01;97394.19;;;10.66;78.34
41703;BME280;861;48.808;9.006;2023-03-20T05:06:29;97394.97;;;10.70;78.61
41703;BME280;861;48.808;9.006;2023-03-20T05:08:58;97393.53;;;10.83;78.08
41703;BME280;861;48.808;9.006;2023-03-20T05:11:27;97403.06;;;10.59;78.97
41703;BME280;861;48.808;9.006;2023-03-20T05:13:53;97412.44;;;10.62;79.52
41703;BME280;861;48.808;9.006;2023-03-20T05:16:20;97412.94;;;10.74;79.06
41703;BME280;861;48.808;9.006;2023-03-20T05:18:46;97417.63;;;10.81;78.44
41703;BME280;861;48.808;9.006;2023-03-20T05:21:13;97423.06;;;10.77;78.87
41703;BME280;861;48.808;9.006;2023-03-20T05:23:40;97413.88;;;10.49;78.53
41703;BME280;861;48.808;9.006;2023-03-20T05:26:06;97411.19;;;10.52;79.02
41703;BME280;861;48.808;9.006;2023-03-20T05:28:32;97399.81;;;10.40;78.96
41703;BME280;861;48.808;9.006;2023-03-20T05:30:59;97400.16;;;10.38;79.21
41703;BME280;861;48.808;9.006;2023-03-20T05:33:26;97393.97;;;10.41;81.88
41703;BME280;861;48.808;9.006;2023-03-20T05:35:52;97397.84;;;10.88;80.62
41703;BME280;861;48.808;9.006;2023-03-20T05:38:18;97403.88;;;11.14;80.38
41703;BME280;861;48.808;9.006;2023-03-20T05:40:49;97406.66;;;11.21;79.11
41703;BME280;861;48.808;9.006;2023-03-20T05:43:15;97395.81;;;11.32;78.36
41703;BME280;861;48.808;9.006;2023-03-20T05:45:42;97410.16;;;11.25;76.74
41703;BME280;861;48.808;9.006;2023-03-20T05:48:08;97404.63;;;11.11;77.66
41703;BME280;861;48.808;9.006;2023-03-20T05:50:35;97410.19;;;11.29;77.67
41703;BME280;861;48.808;9.006;2023-03-20T05:53:01;97419.34;;;11.61;77.51
41703;BME280;861;48.808;9.006;2023-03-20T05:55:27;97414.41;;;11.84;76.62
41703;BME280;861;48.808;9.006;2023-03-20T05:57:53;97417.16;;;11.94;75.22
41703;BME280;861;48.808;9.006;2023-03-20T06:00:20;97420.78;;;12.19;74.74
41703;BME280;861;48.808;9.006;2023-03-20T06:02:46;97421.56;;;12.38;73.90
41703;BME280;861;48.808;9.006;2023-03-20T06:05:13;97432.13;;;12.50;73.87
41703;BME280;861;48.808;9.006;2023-03-20T06:07:39;97429.78;;;12.52;71.51
41703;BME280;861;48.808;9.006;2023-03-20T06:10:06;97428.22;;;12.44;71.77
41703;BME280;861;48.808;9.006;2023-03-20T06:12:32;97427.81;;;12.24;72.51
41703;BME280;861;48.808;9.006;2023-03-20T06:14:58;97444.09;;;11.99;72.96
41703;BME280;861;48.808;9.006;2023-03-20T06:17:25;97441.69;;;11.87;73.08
41703;BME280;861;48.808;9.006;2023-03-20T06:19:51;97434.91;;;11.60;74.21
41703;BME280;861;48.808;9.006;2023-03-20T06:22:18;97430.94;;;11.47;74.95
41703;BME280;861;48.808;9.006;2023-03-20T06:24:45;97430.50;;;11.38;76.08
41703;BME280;861;48.808;9.006;2023-03-20T06:27:11;97427.38;;;11.33;76.13
41703;BME280;861;48.808;9.006;2023-03-20T06:29:38;97420.84;;;10.94;77.69
41703;BME280;861;48.808;9.006;2023-03-20T06:32:07;97422.09;;;11.00;77.30
41703;BME280;861;48.808;9.006;2023-03-20T06:34:34;97424.09;;;11.06;76.99
41703;BME280;861;48.808;9.006;2023-03-20T06:37:00;97421.44;;;11.24;76.58
41703;BME280;861;48.808;9.006;2023-03-20T06:39:27;97416.69;;;11.10;76.31
41703;BME280;861;48.808;9.006;2023-03-20T06:41:53;97423.22;;;10.95;76.66
41703;BME280;861;48.808;9.006;2023-03-20T06:44:20;97421.53;;;10.80;78.52
41703;BME280;861;48.808;9.006;2023-03-20T06:46:46;97427.31;;;10.75;78.11
41703;BME280;861;48.808;9.006;2023-03-20T06:49:12;97423.38;;;10.69;80.63
41703;BME280;861;48.808;9.006;2023-03-20T06:51:39;97426.47;;;10.67;80.08
41703;BME280;861;48.808;9.006;2023-03-20T06:54:06;97426.03;;;10.58;81.47
41703;BME280;861;48.808;9.006;2023-03-20T06:56:32;97427.91;;;11.02;79.37
41703;BME280;861;48.808;9.006;2023-03-20T06:58:58;97439.41;;;10.77;80.07
41703;BME280;861;48.808;9.006;2023-03-20T07:01:24;97435.78;;;11.10;77.67
41703;BME280;861;48.808;9.006;2023-03-20T07:03:52;97445.13;;;11.13;79.62
41703;BME280;861;48.808;9.006;2023-03-20T07:06:18;97447.97;;;11.30;78.07
41703;BME280;861;48.808;9.006;2023-03-20T07:08:44;97452.25;;;11.28;77.84
41703;BME280;861;48.808;9.006;2023-03-20T07:11:11;97450.69;;;11.27;76.07
41703;BME280;861;48.808;9.006;2023-03-20T07:13:37;97452.09;;;11.07;77.52
41703;BME280;861;48.808;9.006;2023-03-20T07:16:04;97455.91;;;10.95;78.18
41703;BME280;861;48.808;9.006;2023-03-20T07:18:32;97457.66;;;10.73;79.49
41703;BME280;861;48.808;9.006;2023-03-20T07:21:05;97469.97;;;10.60;79.44
41703;BME280;861;48.808;9.006;2023-03-20T07:23:33;97468.03;;;10.61;80.00
41703;BME280;861;48.808;9.006;2023-03-20T07:26:00;97465.69;;;10.59;79.55
41703;BME280;861;48.808;9.006;2023-03-20T07:28:26;97457.31;;;10.78;79.64
41703;BME280;861;48.808;9.006;2023-03-20T07:30:53;97461.81;;;10.60;80.56
41703;BME280;861;48.808;9.006;2023-03-20T07:33:20;97461.16;;;10.34;82.40
41703;BME280;861;48.808;9.006;2023-03-20T07:35:52;97460.97;;;10.53;82.88
41703;BME280;861;48.808;9.006;2023-03-20T07:38:20;97461.00;;;11.00;80.53
41703;BME280;861;48.808;9.006;2023-03-20T07:40:47;97464.38;;;11.34;77.86
41703;BME280;861;48.808;9.006;2023-03-20T07:43:15;97468.47;;;11.10;78.66
41703;BME280;861;48.808;9.006;2023-03-20T07:45:42;97475.06;;;11.06;78.61
41703;BME280;861;48.808;9.006;2023-03-20T07:48:09;97473.47;;;11.05;79.89
41703;BME280;861;48.808;9.006;2023-03-20T07:50:35;97472.53;;;11.34;77.34
41703;BME280;861;48.808;9.006;2023-03-20T07:53:02;97471.59;;;11.63;75.96
41703;BME280;861;48.808;9.006;2023-03-20T07:55:28;97473.06;;;10.99;77.44
41703;BME280;861;48.808;9.006;2023-03-20T07:57:54;97467.16;;;10.90;78.93
41703;BME280;861;48.808;9.006;2023-03-20T08:00:20;97467.31;;;11.08;78.41
41703;BME280;861;48.808;9.006;2023-03-20T08:02:47;97471.41;;;11.38;74.72
41703;BME280;861;48.808;9.006;2023-03-20T08:05:13;97471.00;;;11.33;76.57
41703;BME280;861;48.808;9.006;2023-03-20T08:07:39;97468.16;;;11.22;78.26
41703;BME280;861;48.808;9.006;2023-03-20T08:10:06;97463.09;;;11.75;73.80
41703;BME280;861;48.808;9.006;2023-03-20T08:12:32;97461.53;;;11.74;75.48
41703;BME280;861;48.808;9.006;2023-03-20T08:14:58;97466.56;;;11.72;74.67
41703;BME280;861;48.808;9.006;2023-03-20T08:17:24;97474.47;;;11.33;76.02
41703;BME280;861;48.808;9.006;2023-03-20T08:19:50;97475.75;;;11.46;75.66
41703;BME280;861;48.808;9.006;2023-03-20T08:22:16;97477.25;;;11.37;76.05
41703;BME280;861;48.808;9.006;2023-03-20T08:24:42;97476.69;;;11.64;74.49
41703;BME280;861;48.808;9.006;2023-03-20T08:27:09;97486.50;;;11.79;74.65
41703;BME280;861;48.808;9.006;2023-03-20T08:29:35;97485.75;;;11.86;74.55
41703;BME280;861;48.808;9.006;2023-03-20T08:32:01;97477.28;;;12.08;72.81
41703;BME280;861;48.808;9.006;2023-03-20T08:34:27;97473.81;;;12.22;72.11
41703;BME280;861;48.808;9.006;2023-03-20T08:36:53;97473.03;;;12.25;73.20
41703;BME280;861;48.808;9.006;2023-03-20T08:39:19;97464.44;;;12.23;71.50
41703;BME280;861;48.808;9.006;2023-03-20T08:41:46;97466.75;;;12.14;72.94
41703;BME280;861;48.808;9.006;2023-03-20T08:44:13;97464.41;;;12.12;74.01
41703;BME280;861;48.808;9.006;2023-03-20T08:46:39;97461.75;;;12.33;73.66
41703;BME280;861;48.808;9.006;2023-03-20T08:49:06;97456.72;;;12.57;70.40
41703;BME280;861;48.808;9.006;2023-03-20T08:51:32;97463.78;;;12.72;70.03
41703;BME280;861;48.808;9.006;2023-03-20T08:53:58;97461.81;;;12.58;69.96
41703;BME280;861;48.808;9.006;2023-03-20T08:56:24;97473.53;;;12.59;71.18
41703;BME280;861;48.808;9.006;2023-03-20T08:58:50;97476.66;;;12.71;69.05
41703;BME280;861;48.808;9.006;2023-03-20T09:01:18;97469.22;;;12.58;70.79
41703;BME280;861;48.808;9.006;2023-03-20T09:03:45;97468.84;;;12.56;71.35
41703;BME280;861;48.808;9.006;2023-03-20T09:06:12;97479.78;;;12.77;72.48
41703;BME280;861;48.808;9.006;2023-03-20T09:08:38;97479.41;;;12.92;69.43
41703;BME280;861;48.808;9.006;2023-03-20T09:11:06;97477.84;;;12.88;70.67
41703;BME280;861;48.808;9.006;2023-03-20T09:13:33;97480.59;;;12.84;70.46
41703;BME280;861;48.808;9.006;2023-03-20T09:15:59;97481.31;;;12.46;70.32
41703;BME280;861;48.808;9.006;2023-03-20T09:18:26;97487.97;;;12.56;70.64
41703;BME280;861;48.808;9.006;2023-03-20T09:20:52;97483.72;;;12.90;70.14
41703;BME280;861;48.808;9.006;2023-03-20T09:23:19;97486.06;;;13.33;67.75
41703;BME280;861;48.808;9.006;2023-03-20T09:25:46;97480.59;;;13.58;67.80
41703;BME280;861;48.808;9.006;2023-03-20T09:28:12;97478.25;;;13.49;67.67
41703;BME280;861;48.808;9.006;2023-03-20T09:30:38;97479.81;;;13.57;67.40
41703;BME280;861;48.808;9.006;2023-03-20T09:33:05;97473.81;;;14.05;65.13
41703;BME280;861;48.808;9.006;2023-03-20T09:35:31;97471.84;;;14.05;67.47
41703;BME280;861;48.808;9.006;2023-03-20T09:38:00;97480.47;;;14.00;65.68
41703;BME280;861;48.808;9.006;2023-03-20T09:40:51;97478.03;;;14.23;66.06
41703;BME280;861;48.808;9.006;2023-03-20T09:48:03;97480.81;;;14.16;65.97
41703;BME280;861;48.808;9.006;2023-03-20T09:50:58;97490.22;;;14.08;65.12
41703;BME280;861;48.808;9.006;2023-03-20T09:57:04;97489.09;;;14.02;64.70
41703;BME280;861;48.808;9.006;2023-03-20T09:59:36;97496.94;;;13.86;64.36
41703;BME280;861;48.808;9.006;2023-03-20T10:02:28;97498.56;;;13.66;65.60
41703;BME280;861;48.808;9.006;2023-03-20T10:07:59;97495.00;;;13.83;66.77
41703;BME280;861;48.808;9.006;2023-03-20T10:14:40;97496.16;;;13.89;64.72
41703;BME280;861;48.808;9.006;2023-03-20T10:17:59;97492.19;;;14.04;64.15
41703;BME280;861;48.808;9.006;2023-03-20T10:21:04;97495.31;;;14.10;63.71
41703;BME280;861;48.808;9.006;2023-03-20T10:24:04;97500.44;;;13.94;61.60
41703;BME280;861;48.808;9.006;2023-03-20T10:26:38;97500.84;;;13.96;62.62
41703;BME280;861;48.808;9.006;2023-03-20T10:33:49;97502.38;;;14.04;62.84
41703;BME280;861;48.808;9.006;2023-03-20T10:37:39;97496.84;;;14.18;64.24
41703;BME280;861;48.808;9.006;2023-03-20T10:40:37;97496.50;;;14.05;64.46
41703;BME280;861;48.808;9.006;2023-03-20T10:43:24;97499.16;;;14.26;64.41
41703;BME280;861;48.808;9.006;2023-03-20T10:46:05;97492.94;;;14.26;63.83
41703;BME280;861;48.808;9.006;2023-03-20T10:49:04;97485.88;;;14.21;63.12
41703;BME280;861;48.808;9.006;2023-03-20T10:51:57;97485.06;;;14.35;61.82
41703;BME280;861;48.808;9.006;2023-03-20T10:54:49;97485.44;;;14.37;63.86
41703;BME280;861;48.808;9.006;2023-03-20T10:57:30;97485.75;;;14.53;64.20
41703;BME280;861;48.808;9.006;2023-03-20T11:00:02;97487.22;;;14.68;63.50
41703;BME280;861;48.808;9.006;2023-03-20T11:02:31;97474.22;;;14.79;61.38
41703;BME280;861;48.808;9.006;2023-03-20T11:05:30;97481.31;;;14.73;63.04
41703;BME280;861;48.808;9.006;2023-03-20T11:08:10;97472.38;;;14.62;61.87
41703;BME280;861;48.808;9.006;2023-03-20T11:10:42;97482.31;;;14.31;62.70
41703;BME280;861;48.808;9.006;2023-03-20T11:13:40;97484.25;;;14.38;62.34
41703;BME280;861;48.808;9.006;2023-03-20T11:16:30;97477.69;;;14.11;63.57
41703;BME280;861;48.808;9.006;2023-03-20T11:19:09;97480.44;;;14.11;62.71
41703;BME280;861;48.808;9.006;2023-03-20T11:21:53;97485.09;;;14.21;62.63
41703;BME280;861;48.808;9.006;2023-03-20T11:24:55;97482.72;;;14.26;62.90
41703;BME280;861;48.808;9.006;2023-03-20T11:27:33;97481.44;;;14.48;61.27
41703;BME280;861;48.808;9.006;2023-03-20T11:30:06;97479.66;;;14.07;63.38
41703;BME280;861;48.808;9.006;2023-03-20T11:32:49;97482.34;;;14.17;64.43
41703;BME280;861;48.808;9.006;2023-03-20T11:38:19;97470.09;;;14.50;60.45
41703;BME280;861;48.808;9.006;2023-03-20T11:40:49;97474.03;;;14.45;61.78
41703;BME280;861;48.808;9.006;2023-03-20T11:43:25;97476.28;;;14.61;59.89
41703;BME280;861;48.808;9.006;2023-03-20T11:46:00;97467.16;;;14.81;60.24
41703;BME280;861;48.808;9.006;2023-03-20T11:48:43;97471.22;;;15.14;59.47
41703;BME280;861;48.808;9.006;2023-03-20T11:51:19;97460.03;;;15.42;60.16
41703;BME280;861;48.808;9.006;2023-03-20T11:59:14;97467.88;;;15.36;58.67
41703;BME280;861;48.808;9.006;2023-03-20T12:01:54;97459.31;;;15.34;59.24
41703;BME280;861;48.808;9.006;2023-03-20T12:04:36;97457.66;;;15.81;58.88
41703;BME280;861;48.808;9.006;2023-03-20T12:07:34;97459.59;;;15.84;57.78
41703;BME280;861;48.808;9.006;2023-03-20T12:10:12;97455.44;;;16.03;57.82
41703;BME280;861;48.808;9.006;2023-03-20T12:12:48;97453.94;;;15.98;56.96
41703;BME280;861;48.808;9.006;2023-03-20T12:15:32;97453.88;;;15.68;57.27
41703;BME280;861;48.808;9.006;2023-03-20T12:18:30;97451.53;;;15.67;57.12
41703;BME280;861;48.808;9.006;2023-03-20T12:21:42;97453.06;;;15.30;58.35
41703;BME280;861;48.808;9.006;2023-03-20T12:24:32;97450.34;;;15.27;59.79
41703;BME280;861;48.808;9.006;2023-03-20T12:27:39;97452.63;;;15.32;58.89
41703;BME280;861;48.808;9.006;2023-03-20T12:30:29;97446.75;;;15.74;57.41
41703;BME280;861;48.808;9.006;2023-03-20T12:36:24;97433.09;;;15.71;57.64
41703;BME280;861;48.808;9.006;2023-03-20T12:38:57;97440.94;;;15.69;57.28
41703;BME280;861;48.808;9.006;2023-03-20T12:50:38;97425.69;;;15.23;58.12
41703;BME280;861;48.808;9.006;2023-03-20T12:59:45;97439.00;;;14.74;59.47
41703;BME280;861;48.808;9.006;2023-03-20T13:03:14;97421.47;;;14.61;59.70
41703;BME280;861;48.808;9.006;2023-03-20T13:06:34;97420.94;;;14.80;60.35
41703;BME280;861;48.808;9.006;2023-03-20T13:16:04;97422.78;;;14.42;63.07
41703;BME280;861;48.808;9.006;2023-03-20T13:24:54;97401.16;;;15.06;58.40
41703;BME280;861;48.808;9.006;2023-03-20T13:27:49;97403.94;;;14.99;59.64
41703;BME280;861;48.808;9.006;2023-03-20T13:31:01;97400.31;;;15.12;58.00
41703;BME280;861;48.808;9.006;2023-03-20T13:34:15;97398.72;;;15.15;57.50
41703;BME280;861;48.808;9.006;2023-03-20T13:37:20;97400.06;;;14.96;58.97
41703;BME280;861;48.808;9.006;2023-03-20T13:40:42;97388.13;;;14.73;58.91
41703;BME280;861;48.808;9.006;2023-03-20T13:43:26;97393.47;;;14.90;58.50
41703;BME280;861;48.808;9.006;2023-03-20T13:46:40;97379.47;;;15.22;56.71
41703;BME280;861;48.808;9.006;2023-03-20T13:49:54;97382.22;;;15.18;57.16
41703;BME280;861;48.808;9.006;2023-03-20T13:52:53;97379.28;;;14.95;56.28
41703;BME280;861;48.808;9.006;2023-03-20T13:59:40;97376.41;;;15.13;58.48
41703;BME280;861;48.808;9.006;2023-03-20T14:05:54;97366.72;;;15.42;55.20
41703;BME280;861;48.808;9.006;2023-03-20T14:08:33;97363.22;;;15.38;56.26
41703;BME280;861;48.808;9.006;2023-03-20T14:11:34;97365.34;;;15.23;55.71
41703;BME280;861;48.808;9.006;2023-03-20T14:14:22;97357.50;;;15.59;54.96
41703;BME280;861;48.808;9.006;2023-03-20T14:17:20;97359.22;;;15.80;54.55
41703;BME280;861;48.808;9.006;2023-03-20T14:19:55;97359.16;;;15.87;52.27
41703;BME280;861;48.808;9.006;2023-03-20T14:22:33;97360.53;;;15.68;55.01
41703;BME280;861;48.808;9.006;2023-03-20T14:25:16;97355.28;;;15.06;54.45
41703;BME280;861;48.808;9.006;2023-03-20T14:30:49;97364.50;;;14.35;58.11
41703;BME280;861;48.808;9.006;2023-03-20T14:38:54;97360.88;;;14.48;56.87
41703;BME280;861;48.808;9.006;2023-03-20T14:50:32;97362.91;;;14.41;54.99
41703;BME280;861;48.808;9.006;2023-03-20T14:53:33;97362.06;;;14.47;56.07
41703;BME280;861;48.808;9.006;2023-03-20T14:56:13;97355.59;;;14.75;54.32
41703;BME280;861;48.808;9.006;2023-03-20T14:59:13;97357.59;;;14.67;55.63
41703;BME280;861;48.808;9.006;2023-03-20T15:02:00;97352.06;;;14.78;54.22
41703;BME280;861;48.808;9.006;2023-03-20T15:04:42;97355.66;;;14.68;54.69
41703;BME280;861;48.808;9.006;2023-03-20T15:07:24;97351.16;;;14.88;55.50
41703;BME280;861;48.808;9.006;2023-03-20T15:10:00;97351.28;;;14.74;55.35
41703;BME280;861;48.808;9.006;2023-03-20T15:12:36;97348.06;;;14.86;55.65
41703;BME280;861;48.808;9.006;2023-03-20T15:15:29;97354.09;;;14.67;56.81
41703;BME280;861;48.808;9.006;2023-03-20T15:18:13;97343.94;;;14.64;55.56
41703;BME280;861;48.808;9.006;2023-03-20T15:20:43;97349.66;;;14.80;55.21
41703;BME280;861;48.808;9.006;2023-03-20T15:23:10;97344.28;;;14.69;55.57
41703;BME280;861;48.808;9.006;2023-03-20T15:25:46;97344.81;;;14.50;57.19
41703;BME280;861;48.808;9.006;2023-03-20T15:28:26;97336.84;;;14.70;55.40
41703;BME280;861;48.808;9.006;2023-03-20T15:30:57;97339.31;;;14.57;57.03
41703;BME280;861;48.808;9.006;2023-03-20T15:33:35;97341.28;;;14.53;55.94
41703;BME280;861;48.808;9.006;2023-03-20T15:36:22;97348.94;;;14.72;56.36
41703;BME280;861;48.808;9.006;2023-03-20T15:39:16;97354.09;;;14.67;55.74
41703;BME280;861;48.808;9.006;2023-03-20T15:42:03;97358.03;;;14.62;56.65
41703;BME280;861;48.808;9.006;2023-03-20T15:44:42;97354.75;;;14.34;57.06
41703;BME280;861;48.808;9.006;2023-03-20T15:47:14;97356.28;;;14.35;56.95
41703;BME280;861;48.808;9.006;2023-03-20T15:49:56;97360.25;;;14.27;57.29
41703;BME280;861;48.808;9.006;2023-03-20T15:52:42;97359.09;;;14.21;57.78
41703;BME280;861;48.808;9.006;2023-03-20T15:55:22;97359.84;;;14.28;56.77
41703;BME280;861;48.808;9.006;2023-03-20T15:57:51;97359.91;;;14.14;57.54
41703;BME280;861;48.808;9.006;2023-03-20T16:00:46;97355.28;;;14.04;57.98
41703;BME280;861;48.808;9.006;2023-03-20T16:03:20;97355.19;;;14.25;58.80
41703;BME280;861;48.808;9.006;2023-03-20T16:05:51;97349.69;;;14.22;58.11